Superior, Wyoming
Current Conditions -  °F | °C
As of 5:54 AM on Saturday 20 Dec 2014 (Local Time) from KRKS Reporting Station
Overcast Overcast  
Wind Chill: 17°   Ceiling: 5000
Heat Index: 28°   Visibility: 10mi
Dew Point: 22°   Wind: 13mph
Humidity: 78%   Direction: 230°SW
Pressure: 30.06"   Gusts: NA
Location:  41.77°N, 108.98°W
Report Text: KRKS 201254Z AUTO 23011KT 10SM FEW039 OVC050 M02/M06 A3006 RMK AO2 SLP205 T10221056
Loading
Personal Weather Stations






























Interactive Weather Map New forecast layout! Learn more

10-Day Weather Forecast

Advertisements
Track Severe Weather on mobile